createdAt,value
2023-01-21T00:00:07.517Z,100
2023-01-21T00:02:33.509Z,100
2023-01-21T00:04:58.604Z,100
2023-01-21T00:07:24.716Z,100
2023-01-21T00:09:50.801Z,100
2023-01-21T00:12:16.898Z,100
2023-01-21T00:14:42.998Z,100
2023-01-21T00:17:09.168Z,100
2023-01-21T00:19:35.207Z,100
2023-01-21T00:22:01.302Z,100
2023-01-21T00:24:27.393Z,100
2023-01-21T00:26:53.487Z,100
2023-01-21T00:29:19.581Z,100
2023-01-21T00:31:45.681Z,100
2023-01-21T00:34:11.821Z,100
2023-01-21T00:36:36.914Z,100
2023-01-21T00:39:02.998Z,100
2023-01-21T00:41:29.094Z,100
2023-01-21T00:43:55.189Z,100
2023-01-21T00:46:21.286Z,100
2023-01-21T00:48:47.374Z,100
2023-01-21T00:51:13.480Z,100
2023-01-21T00:53:39.580Z,100
2023-01-21T00:56:05.675Z,100
2023-01-21T00:58:31.779Z,100
2023-01-21T01:00:57.883Z,100
2023-01-21T01:03:23.962Z,100
2023-01-21T01:05:50.070Z,100
2023-01-21T01:08:15.178Z,100
2023-01-21T01:10:41.308Z,100
2023-01-21T01:13:07.372Z,100
2023-01-21T01:15:33.459Z,100
2023-01-21T01:17:59.564Z,100
2023-01-21T01:20:25.648Z,100
2023-01-21T01:22:51.763Z,100
2023-01-21T01:25:17.855Z,100
2023-01-21T01:27:43.953Z,100
2023-01-21T01:30:10.109Z,100
2023-01-21T01:32:36.139Z,100
2023-01-21T01:35:02.243Z,100
2023-01-21T01:37:28.347Z,100
2023-01-21T01:42:19.565Z,100
2023-01-21T01:44:45.663Z,100
2023-01-21T01:47:11.768Z,100
2023-01-21T01:49:37.847Z,100
2023-01-21T01:52:03.990Z,100
2023-01-21T01:54:30.073Z,100
2023-01-21T01:56:56.159Z,100
2023-01-21T01:59:22.274Z,100
2023-01-21T02:01:48.344Z,100
2023-01-21T02:04:14.476Z,100
2023-01-21T02:06:40.559Z,100
2023-01-21T02:09:06.666Z,100
2023-01-21T02:11:31.755Z,100
2023-01-21T02:13:57.860Z,100
2023-01-21T02:16:23.953Z,100
2023-01-21T02:18:50.062Z,100
2023-01-21T02:21:16.164Z,100
2023-01-21T02:23:42.261Z,100
2023-01-21T02:26:08.380Z,100
2023-01-21T02:28:34.458Z,100
2023-01-21T02:31:00.576Z,100
2023-01-21T02:33:26.657Z,100
2023-01-21T02:35:52.753Z,100
2023-01-21T02:38:18.850Z,100
2023-01-21T02:40:44.958Z,100
2023-01-21T02:43:10.081Z,100
2023-01-21T02:45:36.171Z,100
2023-01-21T02:48:02.288Z,100
2023-01-21T02:50:28.363Z,100
2023-01-21T02:52:54.462Z,100
2023-01-21T02:55:20.554Z,100
2023-01-21T02:57:46.665Z,100
2023-01-21T03:00:12.795Z,100
2023-01-21T03:02:38.853Z,100
2023-01-21T03:05:04.960Z,100
2023-01-21T03:07:31.054Z,100
2023-01-21T03:09:57.159Z,100
2023-01-21T03:12:23.243Z,100
2023-01-21T03:14:48.375Z,100
2023-01-21T03:17:14.462Z,100
2023-01-21T03:19:40.556Z,100
2023-01-21T03:22:06.675Z,100
2023-01-21T03:24:32.766Z,100
2023-01-21T03:26:58.866Z,100
2023-01-21T03:29:24.949Z,100
2023-01-21T03:31:51.063Z,100
2023-01-21T03:34:17.148Z,100
2023-01-21T03:36:43.245Z,100
2023-01-21T03:39:09.354Z,100
2023-01-21T03:41:35.446Z,100
2023-01-21T03:44:01.573Z,100
2023-01-21T03:46:26.659Z,100
2023-01-21T03:48:52.779Z,100
2023-01-21T03:51:18.860Z,100
2023-01-21T03:53:44.937Z,100
2023-01-21T03:56:11.075Z,100
2023-01-21T03:58:37.159Z,100
2023-01-21T04:01:03.231Z,100
2023-01-21T04:03:29.349Z,100
2023-01-21T04:05:55.445Z,100
2023-01-21T04:08:21.550Z,100
2023-01-21T04:10:47.656Z,100
2023-01-21T04:13:13.750Z,100
2023-01-21T04:15:39.845Z,100
2023-01-21T04:18:04.946Z,100
2023-01-21T04:20:31.056Z,100
2023-01-21T04:22:57.154Z,100
2023-01-21T04:25:23.267Z,100
2023-01-21T04:27:49.344Z,100
2023-01-21T04:30:15.454Z,100
2023-01-21T04:32:41.535Z,100
2023-01-21T04:35:07.649Z,100
2023-01-21T04:37:33.737Z,100
2023-01-21T04:39:59.835Z,100
2023-01-21T04:42:25.934Z,100
2023-01-21T04:44:52.075Z,100
2023-01-21T04:47:18.134Z,100
2023-01-21T04:49:43.258Z,100
2023-01-21T04:52:09.342Z,100
2023-01-21T04:54:35.452Z,100
2023-01-21T04:57:01.535Z,100
2023-01-21T04:59:27.637Z,100
2023-01-21T05:01:53.733Z,100
2023-01-21T05:04:19.823Z,100
2023-01-21T05:06:45.947Z,100
2023-01-21T05:09:12.027Z,100
2023-01-21T05:11:38.126Z,100
2023-01-21T05:14:04.237Z,100
2023-01-21T05:16:30.381Z,100
2023-01-21T05:18:56.418Z,100
2023-01-21T05:21:21.538Z,100
2023-01-21T05:23:47.624Z,100
2023-01-21T05:26:13.746Z,100
2023-01-21T05:28:39.826Z,100
2023-01-21T05:31:05.928Z,100
2023-01-21T05:33:32.044Z,100
2023-01-21T05:35:58.123Z,100
2023-01-21T05:38:24.240Z,100
2023-01-21T05:40:50.334Z,100
2023-01-21T05:43:16.424Z,100
2023-01-21T05:45:42.589Z,100
2023-01-21T05:48:08.610Z,100
2023-01-21T05:50:34.717Z,100
2023-01-21T05:52:59.828Z,100
2023-01-21T05:57:52.016Z,100
2023-01-21T06:00:18.118Z,100
2023-01-21T06:02:44.236Z,100
2023-01-21T06:05:10.320Z,100
2023-01-21T06:07:36.408Z,100
2023-01-21T06:10:02.566Z,100
2023-01-21T06:12:28.623Z,100
2023-01-21T06:14:54.723Z,100
2023-01-21T06:17:20.815Z,100
2023-01-21T06:19:46.935Z,100
2023-01-21T06:22:13.017Z,100
2023-01-21T06:24:38.121Z,100
2023-01-21T06:27:04.233Z,100
2023-01-21T06:29:30.319Z,100
2023-01-21T06:31:56.421Z,100
2023-01-21T06:34:22.523Z,100
2023-01-21T06:36:48.608Z,100
2023-01-21T06:39:14.731Z,100
2023-01-21T06:41:40.812Z,100
2023-01-21T06:44:06.913Z,100
2023-01-21T06:46:32.994Z,100
2023-01-21T06:48:59.095Z,100
2023-01-21T06:51:25.202Z,100
2023-01-21T06:53:51.310Z,100
2023-01-21T06:56:16.405Z,100
2023-01-21T06:58:42.509Z,100
2023-01-21T07:01:08.609Z,100
2023-01-21T07:03:34.699Z,100
2023-01-21T07:06:00.813Z,100
2023-01-21T07:08:26.912Z,100
2023-01-21T07:10:53.000Z,100
2023-01-21T07:13:19.114Z,100
2023-01-21T07:15:45.214Z,100
2023-01-21T07:18:11.317Z,100
2023-01-21T07:20:37.400Z,100
2023-01-21T07:23:03.541Z,100
2023-01-21T07:25:29.710Z,100
2023-01-21T07:27:54.700Z,100
2023-01-21T07:30:20.808Z,100
2023-01-21T07:32:46.905Z,100
2023-01-21T07:35:13.002Z,100
2023-01-21T07:37:39.092Z,100
2023-01-21T07:40:05.210Z,100
2023-01-21T07:42:30.315Z,100
2023-01-21T07:44:56.414Z,100
2023-01-21T07:47:22.510Z,100
2023-01-21T07:49:48.602Z,100
2023-01-21T07:52:14.772Z,100
2023-01-21T07:54:40.818Z,100
2023-01-21T07:57:06.901Z,100
2023-01-21T07:59:33.002Z,100
2023-01-21T08:01:59.088Z,100
2023-01-21T08:04:25.193Z,100
2023-01-21T08:06:51.315Z,100
2023-01-21T08:09:17.401Z,100
2023-01-21T08:11:43.491Z,100
2023-01-21T08:14:08.613Z,100
2023-01-21T08:16:34.746Z,100
2023-01-21T08:21:26.910Z,100
2023-01-21T08:23:53.004Z,100
2023-01-21T08:26:19.115Z,100
2023-01-21T08:28:45.193Z,100
2023-01-21T08:31:11.301Z,100
2023-01-21T08:33:37.398Z,100
2023-01-21T08:36:03.477Z,100
2023-01-21T08:38:29.596Z,100
2023-01-21T08:40:55.684Z,100
2023-01-21T08:43:21.788Z,100
2023-01-21T08:45:46.896Z,99.7
2023-01-21T08:48:13.054Z,99.9
2023-01-21T08:50:39.080Z,99.9
2023-01-21T08:53:05.170Z,99.5
2023-01-21T08:55:31.281Z,99.7
2023-01-21T08:57:57.373Z,99.1
2023-01-21T09:00:23.479Z,98.9
2023-01-21T09:02:49.559Z,99.2
2023-01-21T09:05:15.663Z,99
2023-01-21T09:07:41.762Z,98.4
2023-01-21T09:10:07.848Z,98.3
2023-01-21T09:12:33.962Z,98.7
2023-01-21T09:15:00.075Z,98.3
2023-01-21T09:17:25.258Z,98.5
2023-01-21T09:19:51.326Z,98.1
2023-01-21T09:22:17.410Z,98.3
2023-01-21T09:24:43.446Z,98.3
2023-01-21T09:27:09.558Z,98.4
2023-01-21T09:29:35.652Z,98
2023-01-21T09:32:01.766Z,98
2023-01-21T09:34:27.851Z,98.2
2023-01-21T09:36:53.944Z,98
2023-01-21T09:39:20.066Z,98.4
2023-01-21T09:41:46.133Z,98.5
2023-01-21T09:44:12.248Z,98.3
2023-01-21T09:46:38.334Z,98.3
2023-01-21T09:49:03.447Z,98.4
2023-01-21T09:51:29.543Z,98.1
2023-01-21T09:53:55.640Z,98.1
2023-01-21T09:56:21.738Z,98.1
2023-01-21T09:58:47.856Z,98.2
2023-01-21T10:01:13.940Z,98.3
2023-01-21T10:03:40.047Z,98.8
2023-01-21T10:06:06.143Z,98.5
2023-01-21T10:08:32.225Z,98.4
2023-01-21T10:10:58.321Z,98.3
2023-01-21T10:13:24.431Z,98.3
2023-01-21T10:15:50.545Z,98.2
2023-01-21T10:18:16.617Z,98.3
2023-01-21T10:20:41.827Z,98.1
2023-01-21T10:23:07.986Z,97.8
2023-01-21T10:25:34.033Z,97.5
2023-01-21T10:28:00.168Z,97.6
2023-01-21T10:30:26.170Z,97.6
2023-01-21T10:32:52.279Z,97.3
2023-01-21T10:35:18.525Z,96.9
2023-01-21T10:37:44.479Z,96.9
2023-01-21T10:40:10.591Z,96.3
2023-01-21T10:42:36.667Z,96.2
2023-01-21T10:45:02.738Z,96.5
2023-01-21T10:47:28.828Z,96.7
2023-01-21T10:49:54.925Z,96.7
2023-01-21T10:52:20.040Z,96.8
2023-01-21T10:54:46.149Z,96.6
2023-01-21T10:57:12.245Z,96.7
2023-01-21T10:59:38.302Z,96.6
2023-01-21T11:02:04.410Z,96.8
2023-01-21T11:04:30.508Z,96.7
2023-01-21T11:06:56.590Z,96.8
2023-01-21T11:09:22.695Z,96.9
2023-01-21T11:11:48.799Z,96.8
2023-01-21T11:14:14.908Z,96.8
2023-01-21T11:16:41.000Z,97
2023-01-21T11:19:07.088Z,97
2023-01-21T11:21:33.197Z,96.8
2023-01-21T11:23:58.335Z,96.8
2023-01-21T11:26:24.413Z,96.5
2023-01-21T11:28:50.517Z,96.3
2023-01-21T11:31:16.594Z,96.2
2023-01-21T11:33:42.694Z,96.4
2023-01-21T11:36:08.786Z,96.2
2023-01-21T11:38:34.877Z,96.1
2023-01-21T11:41:00.983Z,96.3
2023-01-21T11:43:27.070Z,96.5
2023-01-21T11:45:53.201Z,97
2023-01-21T11:48:19.280Z,97.2
2023-01-21T11:50:45.407Z,97.2
2023-01-21T11:53:11.472Z,97.7
2023-01-21T11:55:36.607Z,97.7
2023-01-21T11:58:02.686Z,97.5
2023-01-21T12:00:28.775Z,97.3
2023-01-21T12:02:54.869Z,97.6
2023-01-21T12:05:20.992Z,97.9
2023-01-21T12:07:47.110Z,97.7
2023-01-21T12:10:13.166Z,97.5
2023-01-21T12:12:39.291Z,97.5
2023-01-21T12:15:05.373Z,97.5
2023-01-21T12:17:31.492Z,96.7
2023-01-21T12:19:57.558Z,95.8
2023-01-21T12:22:23.668Z,95.6
2023-01-21T12:24:49.791Z,95.1
2023-01-21T12:27:14.869Z,95.4
2023-01-21T12:29:40.980Z,95.3
2023-01-21T12:32:07.087Z,95.4
2023-01-21T12:34:33.150Z,95.5
2023-01-21T12:36:59.278Z,95.4
2023-01-21T12:39:25.351Z,95
2023-01-21T12:41:51.449Z,94.5
2023-01-21T12:46:43.647Z,93.4
2023-01-21T12:49:09.790Z,91.9
2023-01-21T12:51:35.852Z,91.6
2023-01-21T12:54:01.965Z,91.4
2023-01-21T12:56:28.088Z,91.5
2023-01-21T12:58:53.162Z,91.9
2023-01-21T13:01:19.273Z,91.1
2023-01-21T13:03:45.361Z,90.8
2023-01-21T13:06:11.453Z,90.7
2023-01-21T13:08:37.553Z,91.6
2023-01-21T13:11:03.633Z,91.7
2023-01-21T13:13:29.747Z,93
2023-01-21T13:15:55.843Z,92.7
2023-01-21T13:18:21.944Z,92.6
2023-01-21T13:20:48.050Z,91.9
2023-01-21T13:23:14.139Z,92.4
2023-01-21T13:25:40.368Z,92.3
2023-01-21T13:28:06.341Z,93.2
2023-01-21T13:30:31.439Z,93.6
2023-01-21T13:32:57.578Z,94.3
2023-01-21T13:35:23.686Z,94.4
2023-01-21T13:37:49.800Z,95.6
2023-01-21T13:40:15.913Z,96.5
2023-01-21T13:42:41.983Z,96.8
2023-01-21T13:45:08.073Z,96.3
2023-01-21T13:47:34.189Z,96.5
2023-01-21T13:50:00.273Z,96.4
2023-01-21T13:52:26.531Z,95.9
2023-01-21T13:54:52.459Z,95.7
2023-01-21T13:57:18.535Z,96
2023-01-21T13:59:44.624Z,96
2023-01-21T14:02:09.746Z,95.5
2023-01-21T14:04:35.948Z,95.4
2023-01-21T14:07:01.964Z,95.5
2023-01-21T14:09:28.048Z,95.3
2023-01-21T14:11:54.136Z,94.1
2023-01-21T14:14:20.263Z,93.8
2023-01-21T14:16:46.312Z,93.7
2023-01-21T14:19:12.453Z,93.3
2023-01-21T14:21:38.548Z,93.6
2023-01-21T14:24:04.608Z,94
2023-01-21T14:26:30.745Z,94.1
2023-01-21T14:28:56.861Z,93.2
2023-01-21T14:31:22.902Z,92
2023-01-21T14:33:48.995Z,92.5
2023-01-21T14:36:15.163Z,91.9
2023-01-21T14:38:40.217Z,90.9
2023-01-21T14:41:06.305Z,91.1
2023-01-21T14:43:32.426Z,91.5
2023-01-21T14:45:58.516Z,91.7
2023-01-21T14:48:24.609Z,92.1
2023-01-21T14:50:50.711Z,91.9
2023-01-21T14:53:16.791Z,92.2
2023-01-21T14:55:42.922Z,91.8
2023-01-21T14:58:08.992Z,91.5
2023-01-21T15:00:35.088Z,91
2023-01-21T15:03:01.182Z,91.8
2023-01-21T15:05:27.595Z,91
2023-01-21T15:07:53.432Z,90.6
2023-01-21T15:10:18.543Z,90.2
2023-01-21T15:12:44.615Z,90.6
2023-01-21T15:15:10.929Z,90.6
2023-01-21T15:17:36.878Z,90.8
2023-01-21T15:20:02.967Z,90.5
2023-01-21T15:22:29.055Z,90.5
2023-01-21T15:24:55.141Z,91
2023-01-21T15:27:21.282Z,91.9
2023-01-21T15:29:47.387Z,91.9
2023-01-21T15:32:13.420Z,91.8
2023-01-21T15:34:39.530Z,91
2023-01-21T15:37:05.605Z,90.8
2023-01-21T15:39:31.691Z,90.8
2023-01-21T15:41:56.806Z,91.5
2023-01-21T15:44:22.896Z,91.5
2023-01-21T15:46:49.049Z,91.1
2023-01-21T15:49:15.113Z,91.3
2023-01-21T15:51:40.199Z,90.9
2023-01-21T15:54:06.305Z,91.2
2023-01-21T15:56:32.555Z,90.5
2023-01-21T15:58:58.494Z,90.7
2023-01-21T16:01:24.586Z,91
2023-01-21T16:03:50.693Z,90.9
2023-01-21T16:06:16.774Z,91.3
2023-01-21T16:08:42.911Z,91.4
2023-01-21T16:11:08.967Z,90.1
2023-01-21T16:13:35.080Z,90.4
2023-01-21T16:16:01.174Z,90.9
2023-01-21T16:18:27.279Z,91.2
2023-01-21T16:20:53.395Z,90.7
2023-01-21T16:23:19.475Z,91.3
2023-01-21T16:25:45.547Z,91.6
2023-01-21T16:28:11.637Z,91.7
2023-01-21T16:30:36.821Z,91.9
2023-01-21T16:33:02.892Z,91.4
2023-01-21T16:35:28.965Z,91.5
2023-01-21T16:37:55.055Z,92.1
2023-01-21T16:40:21.157Z,91.3
2023-01-21T16:42:47.314Z,91.4
2023-01-21T16:45:13.387Z,91.9
2023-01-21T16:47:39.509Z,92.4
2023-01-21T16:50:05.567Z,91.6
2023-01-21T16:52:31.729Z,91.8
2023-01-21T16:54:57.864Z,91.9
2023-01-21T16:57:23.870Z,92
2023-01-21T16:59:49.935Z,91.9
2023-01-21T17:02:15.036Z,92.2
2023-01-21T17:04:41.140Z,92.7
2023-01-21T17:07:07.232Z,92.5
2023-01-21T17:09:33.332Z,92.3
2023-01-21T17:11:59.435Z,92.6
2023-01-21T17:14:25.533Z,93.1
2023-01-21T17:16:51.636Z,93.7
2023-01-21T17:19:17.731Z,93.8
2023-01-21T17:21:43.868Z,94
2023-01-21T17:24:09.993Z,93.8
2023-01-21T17:26:36.057Z,94
2023-01-21T17:29:02.119Z,93.7
2023-01-21T17:31:28.225Z,93.7
2023-01-21T17:33:53.327Z,94.3
2023-01-21T17:36:19.440Z,93.9
2023-01-21T17:38:45.521Z,93.9
2023-01-21T17:41:11.625Z,93.9
2023-01-21T17:43:37.717Z,93.6
2023-01-21T17:46:03.812Z,93.8
2023-01-21T17:48:29.903Z,93.9
2023-01-21T17:50:56.052Z,93.5
2023-01-21T17:53:22.158Z,93.8
2023-01-21T17:55:48.249Z,93.1
2023-01-21T17:58:14.349Z,93
2023-01-21T18:00:40.451Z,93.5
2023-01-21T18:03:06.538Z,93.8
2023-01-21T18:05:31.693Z,93.8
2023-01-21T18:07:57.774Z,94.1
2023-01-21T18:10:23.820Z,94.3
2023-01-21T18:12:49.935Z,94.5
2023-01-21T18:15:16.066Z,94.8
2023-01-21T18:17:42.131Z,95.3
2023-01-21T18:20:08.201Z,95.8
2023-01-21T18:22:34.308Z,96.5
2023-01-21T18:25:00.505Z,97
2023-01-21T18:27:26.501Z,97.5
2023-01-21T18:29:52.580Z,97.8
2023-01-21T18:32:18.693Z,98
2023-01-21T18:34:44.801Z,98.3
2023-01-21T18:37:09.906Z,98.4
2023-01-21T18:39:35.995Z,98.5
2023-01-21T18:42:02.090Z,98.8
2023-01-21T18:44:28.246Z,98.8
2023-01-21T18:46:54.276Z,99
2023-01-21T18:49:20.381Z,98.8
2023-01-21T18:51:46.464Z,99
2023-01-21T18:54:12.610Z,98.8
2023-01-21T18:56:38.664Z,98.8
2023-01-21T18:59:04.769Z,98.8
2023-01-21T19:01:30.928Z,99
2023-01-21T19:03:56.967Z,98.8
2023-01-21T19:06:23.064Z,98.7
2023-01-21T19:08:48.181Z,98.8
2023-01-21T19:11:14.260Z,98.8
2023-01-21T19:13:40.374Z,99
2023-01-21T19:16:06.450Z,98.8
2023-01-21T19:18:32.555Z,98.8
2023-01-21T19:20:58.649Z,99.1
2023-01-21T19:23:24.836Z,99.2
2023-01-21T19:25:50.851Z,99.3
2023-01-21T19:28:16.938Z,99.5
2023-01-21T19:30:43.035Z,99.6
2023-01-21T19:33:09.167Z,99.6
2023-01-21T19:35:35.231Z,99.6
2023-01-21T19:38:01.328Z,99.5
2023-01-21T19:40:26.455Z,99.6
2023-01-21T19:42:52.563Z,99.6
2023-01-21T19:45:18.628Z,99.6
2023-01-21T19:47:44.730Z,99.5
2023-01-21T19:50:10.842Z,99.7
2023-01-21T19:52:48.594Z,99.6
2023-01-21T19:55:03.016Z,99.7
2023-01-21T19:57:29.123Z,99.7
2023-01-21T19:59:55.227Z,99.7
2023-01-21T20:02:21.320Z,99.5
2023-01-21T20:04:47.581Z,99.6
2023-01-21T20:07:13.620Z,99.8
2023-01-21T20:09:39.817Z,99.9
2023-01-21T20:12:04.894Z,100
2023-01-21T20:14:30.901Z,100
2023-01-21T20:16:57.153Z,100
2023-01-21T20:19:23.188Z,100
2023-01-21T20:21:49.257Z,100
2023-01-21T20:24:15.397Z,100
2023-01-21T20:26:41.315Z,100
2023-01-21T20:29:07.399Z,100
2023-01-21T20:31:33.595Z,100
2023-01-21T20:33:59.604Z,100
2023-01-21T20:36:25.772Z,100
2023-01-21T20:38:51.808Z,100
2023-01-21T20:41:18.053Z,100
2023-01-21T20:43:43.140Z,100
2023-01-21T20:46:09.099Z,100
2023-01-21T20:48:35.201Z,100
2023-01-21T20:51:01.294Z,100
2023-01-21T20:53:27.561Z,100
2023-01-21T20:55:53.555Z,100
2023-01-21T20:58:19.728Z,100
2023-01-21T21:00:45.853Z,100
2023-01-21T21:03:11.793Z,100
2023-01-21T21:05:37.972Z,100
2023-01-21T21:08:03.979Z,100
2023-01-21T21:10:30.073Z,100
2023-01-21T21:12:56.180Z,100
2023-01-21T21:15:21.364Z,100
2023-01-21T21:17:47.389Z,100
2023-01-21T21:20:13.607Z,100
2023-01-21T21:22:39.566Z,100
2023-01-21T21:25:05.758Z,100
2023-01-21T21:27:31.786Z,100
2023-01-21T21:29:57.854Z,100
2023-01-21T21:32:23.974Z,100
2023-01-21T21:34:50.229Z,100
2023-01-21T21:37:16.229Z,100
2023-01-21T21:39:42.264Z,100
2023-01-21T21:42:08.343Z,100
2023-01-21T21:44:34.467Z,100
2023-01-21T21:46:59.656Z,100
2023-01-21T21:49:25.723Z,100
2023-01-21T21:51:51.774Z,100
2023-01-21T21:54:17.963Z,100
2023-01-21T21:56:43.949Z,100
2023-01-21T21:59:10.162Z,100
2023-01-21T22:01:36.152Z,100
2023-01-21T22:04:02.317Z,100
2023-01-21T22:06:28.487Z,100
2023-01-21T22:08:54.437Z,100
2023-01-21T22:11:20.534Z,100
2023-01-21T22:13:46.628Z,100
2023-01-21T22:16:12.720Z,100
2023-01-21T22:18:37.845Z,100
2023-01-21T22:21:03.957Z,100
2023-01-21T22:23:30.098Z,100
2023-01-21T22:25:56.193Z,100
2023-01-21T22:28:22.256Z,100
2023-01-21T22:30:48.384Z,100
2023-01-21T22:33:14.548Z,100
2023-01-21T22:35:40.569Z,100
2023-01-21T22:38:06.752Z,100
2023-01-21T22:40:32.788Z,100
2023-01-21T22:42:58.925Z,100
2023-01-21T22:45:24.964Z,100
2023-01-21T22:47:51.039Z,100
2023-01-21T22:50:16.151Z,100
2023-01-21T22:52:42.316Z,100
2023-01-21T22:55:08.359Z,100
2023-01-21T22:57:34.467Z,100
2023-01-21T23:00:00.528Z,100
2023-01-21T23:02:26.910Z,100
2023-01-21T23:04:52.863Z,100
2023-01-21T23:07:19.028Z,100
2023-01-21T23:09:45.127Z,100
2023-01-21T23:12:11.165Z,100
2023-01-21T23:14:37.304Z,100
2023-01-21T23:17:03.316Z,100
2023-01-21T23:19:29.296Z,100
2023-01-21T23:21:55.476Z,100
2023-01-21T23:24:21.642Z,100
2023-01-21T23:26:47.585Z,100
2023-01-21T23:29:13.729Z,100
2023-01-21T23:31:39.874Z,100
2023-01-21T23:34:05.993Z,100
2023-01-21T23:36:32.160Z,100
2023-01-21T23:38:58.062Z,100
2023-01-21T23:41:23.356Z,100
2023-01-21T23:43:49.415Z,100
2023-01-21T23:46:15.373Z,100
2023-01-21T23:48:41.467Z,100
2023-01-21T23:51:07.572Z,100
2023-01-21T23:53:33.660Z,100
2023-01-21T23:55:59.829Z,100
2023-01-21T23:58:25.869Z,100
